Time;durP1;ratioP1;P1;durP2;ratioP2;P2;SDS_P1;SDS_P2;PMS_P1;PMS_P2;Temp;Humidity;BMP_temperature;BMP_pressure;BME280_temperature;BME280_humidity;BME280_pressure;Samples;Min_cycle;Max_cycle;Signal;HPM_P1;HPM_P2
2022/07/09 00:02:13;;;;;;;4.20;2.20;;;;;;;;;;10392964;28;20116;-79
2022/07/09 00:07:13;;;;;;;3.20;2.10;;;;;;;;;;10393671;28;20409;-79
2022/07/09 00:12:14;;;;;;;3.65;2.20;;;;;;;;;;10365334;28;20102;-80
2022/07/09 00:17:25;;;;;;;3.20;2.03;;;;;;;;;;10393393;28;20049;-82
2022/07/09 00:22:31;;;;;;;4.07;2.20;;;;;;;;;;10383672;28;21117;-79
2022/07/09 00:27:33;;;;;;;4.65;2.60;;;;;;;;;;10391668;28;20050;-80
2022/07/09 00:32:40;;;;;;;3.07;2.23;;;;;;;;;;10392353;28;20057;-80
2022/07/09 00:37:41;;;;;;;3.17;2.60;;;;;;;;;;10431521;28;20113;-81
2022/07/09 00:42:41;;;;;;;4.68;2.40;;;;;;;;;;10378807;28;20060;-80
2022/07/09 00:47:43;;;;;;;4.60;2.50;;;;;;;;;;10401534;28;20045;-81
2022/07/09 00:52:44;;;;;;;5.05;2.92;;;;;;;;;;10407244;28;20046;-81
2022/07/09 00:57:44;;;;;;;4.70;3.08;;;;;;;;;;10378379;28;20845;-81
2022/07/09 01:02:46;;;;;;;5.63;2.78;;;;;;;;;;10384498;28;20058;-81
2022/07/09 01:07:49;;;;;;;3.78;3.45;;;;;;;;;;10357226;28;20042;-80
2022/07/09 01:12:50;;;;;;;5.93;3.03;;;;;;;;;;10382547;28;20037;-80
2022/07/09 01:17:52;;;;;;;3.55;3.00;;;;;;;;;;10384865;28;20057;-80
2022/07/09 01:22:52;;;;;;;3.45;2.40;;;;;;;;;;10388364;28;20041;-80
2022/07/09 01:27:53;;;;;;;4.20;2.95;;;;;;;;;;10341691;28;20050;-79
2022/07/09 01:32:54;;;;;;;5.10;2.83;;;;;;;;;;10383739;28;20045;-80
2022/07/09 01:37:54;;;;;;;4.07;2.90;;;;;;;;;;10399663;28;20053;-81
2022/07/09 01:42:55;;;;;;;4.20;2.90;;;;;;;;;;10363598;28;20037;-80
2022/07/09 01:47:55;;;;;;;5.03;2.77;;;;;;;;;;10389808;28;20049;-78
2022/07/09 01:52:57;;;;;;;3.17;2.65;;;;;;;;;;10364291;28;20260;-79
2022/07/09 01:57:57;;;;;;;3.63;2.35;;;;;;;;;;10379267;28;20041;-78
2022/07/09 02:02:57;;;;;;;4.15;2.75;;;;;;;;;;10372191;28;20045;-78
2022/07/09 02:07:58;;;;;;;4.87;3.70;;;;;;;;;;10371196;28;20056;-78
2022/07/09 02:12:58;;;;;;;3.53;3.13;;;;;;;;;;10366865;28;20373;-77
2022/07/09 02:17:59;;;;;;;7.35;3.80;;;;;;;;;;10375857;28;20228;-77
2022/07/09 02:22:59;;;;;;;4.18;2.97;;;;;;;;;;10378174;28;20069;-79
2022/07/09 02:27:59;;;;;;;3.60;3.13;;;;;;;;;;10401017;28;20060;-80
2022/07/09 02:33:00;;;;;;;5.00;3.50;;;;;;;;;;10413375;28;20394;-81
2022/07/09 02:38:00;;;;;;;4.23;3.10;;;;;;;;;;10424245;28;20137;-82
2022/07/09 02:43:02;;;;;;;5.33;3.77;;;;;;;;;;10403463;28;21167;-82
2022/07/09 02:48:04;;;;;;;4.53;3.65;;;;;;;;;;10414978;28;20273;-81
2022/07/09 02:53:05;;;;;;;5.60;3.60;;;;;;;;;;10402485;28;20041;-83
2022/07/09 02:58:06;;;;;;;3.85;3.40;;;;;;;;;;10415248;28;20069;-82
2022/07/09 03:03:10;;;;;;;6.65;4.03;;;;;;;;;;10373744;28;20064;-82
2022/07/09 03:08:13;;;;;;;4.97;3.92;;;;;;;;;;10422834;28;20048;-82
2022/07/09 03:13:14;;;;;;;5.03;3.38;;;;;;;;;;10413630;28;20044;-81
2022/07/09 03:18:14;;;;;;;3.40;2.90;;;;;;;;;;10422513;28;20088;-79
2022/07/09 03:23:16;;;;;;;4.55;3.00;;;;;;;;;;10409530;28;20277;-79
2022/07/09 03:28:16;;;;;;;4.30;3.50;;;;;;;;;;10404185;28;20056;-79
2022/07/09 03:33:17;;;;;;;4.28;3.58;;;;;;;;;;10372465;28;20083;-78
2022/07/09 03:38:22;;;;;;;5.45;3.80;;;;;;;;;;10387631;28;20378;-82
2022/07/09 03:43:25;;;;;;;5.47;3.83;;;;;;;;;;10407912;28;20049;-81
2022/07/09 03:48:31;;;;;;;6.18;4.15;;;;;;;;;;10395396;28;20106;-82
2022/07/09 03:53:35;;;;;;;5.18;3.58;;;;;;;;;;10360119;28;20446;-79
2022/07/09 03:58:37;;;;;;;4.93;3.53;;;;;;;;;;10395528;28;20208;-82
2022/07/09 04:03:58;;;;;;;4.03;3.50;;;;;;;;;;10384375;28;20045;-81
2022/07/09 04:09:22;;;;;;;4.72;3.50;;;;;;;;;;10375386;28;20527;-81
2022/07/09 04:14:26;;;;;;;8.13;4.05;;;;;;;;;;10396809;28;20077;-79
2022/07/09 04:19:27;;;;;;;4.88;3.70;;;;;;;;;;10382686;28;20060;-79
2022/07/09 04:24:28;;;;;;;4.13;3.72;;;;;;;;;;10380061;28;20119;-78
2022/07/09 04:29:28;;;;;;;5.10;3.90;;;;;;;;;;10372521;28;20057;-78
2022/07/09 04:34:29;;;;;;;5.50;3.80;;;;;;;;;;10383783;28;20041;-77
2022/07/09 04:39:30;;;;;;;4.63;3.65;;;;;;;;;;10377528;28;20049;-78
2022/07/09 04:44:30;;;;;;;5.13;3.40;;;;;;;;;;10375822;28;20058;-77
2022/07/09 04:49:31;;;;;;;4.22;3.83;;;;;;;;;;10379645;28;20269;-78
2022/07/09 04:54:33;;;;;;;4.50;3.70;;;;;;;;;;10373511;28;20076;-79
2022/07/09 04:59:37;;;;;;;4.32;3.92;;;;;;;;;;10391335;28;20269;-79
2022/07/09 05:04:37;;;;;;;4.40;4.00;;;;;;;;;;10382679;28;20144;-77
2022/07/09 05:09:38;;;;;;;6.63;3.92;;;;;;;;;;10380277;28;20199;-77
2022/07/09 05:14:39;;;;;;;6.05;4.00;;;;;;;;;;10362973;28;20140;-80
2022/07/09 05:19:39;;;;;;;4.43;3.72;;;;;;;;;;10381776;28;20041;-78
2022/07/09 05:24:40;;;;;;;6.82;4.05;;;;;;;;;;10359097;28;20061;-79
2022/07/09 05:29:40;;;;;;;5.57;3.72;;;;;;;;;;10371390;28;20439;-81
2022/07/09 05:34:42;;;;;;;5.95;3.85;;;;;;;;;;10392110;28;20060;-82
2022/07/09 05:39:45;;;;;;;4.57;4.13;;;;;;;;;;10383927;28;20084;-81
2022/07/09 05:44:47;;;;;;;5.57;3.70;;;;;;;;;;10424199;28;20052;-82
2022/07/09 05:49:47;;;;;;;5.88;4.20;;;;;;;;;;10416067;28;20056;-80
2022/07/09 05:54:52;;;;;;;5.03;4.45;;;;;;;;;;10434338;28;20053;-81
2022/07/09 05:59:55;;;;;;;6.25;4.97;;;;;;;;;;10416615;28;20064;-81
2022/07/09 06:04:57;;;;;;;;;;;;;;;;;;10413952;28;20087;-80
2022/07/09 06:09:57;;;;;;;5.72;3.97;;;;;;;;;;10394400;28;19916;-78
2022/07/09 06:14:58;;;;;;;6.57;5.57;;;;;;;;;;10384895;28;20120;-79
2022/07/09 06:20:01;;;;;;;4.10;3.70;;;;;;;;;;10408141;28;20041;-79
2022/07/09 06:25:01;;;;;;;5.15;3.33;;;;;;;;;;10402892;28;20041;-80
2022/07/09 06:30:05;;;;;;;5.00;4.30;;;;;;;;;;10394259;28;20156;-80
2022/07/09 06:35:05;;;;;;;12.27;9.40;;;;;;;;;;10404486;28;20049;-79
2022/07/09 06:40:07;;;;;;;16.73;13.50;;;;;;;;;;10403285;28;20124;-80
2022/07/09 06:45:07;;;;;;;5.13;3.70;;;;;;;;;;10402564;28;20099;-79
2022/07/09 06:50:11;;;;;;;3.60;3.30;;;;;;;;;;10410573;28;20178;-79
2022/07/09 06:55:11;;;;;;;4.80;3.67;;;;;;;;;;10372463;28;20128;-80
2022/07/09 07:00:23;;;;;;;4.37;3.97;;;;;;;;;;10395688;28;20123;-82
2022/07/09 07:05:26;;;;;;;;;;;;;;;;;;10412172;28;20284;-80
2022/07/09 07:10:30;;;;;;;5.82;2.95;;;;;;;;;;10457277;23;19921;-81
2022/07/09 07:15:34;;;;;;;4.95;3.28;;;;;;;;;;10413946;28;20152;-78
2022/07/09 07:20:34;;;;;;;5.37;3.77;;;;;;;;;;10422499;28;20181;-81
2022/07/09 07:25:35;;;;;;;5.90;3.77;;;;;;;;;;10433959;28;20110;-79
2022/07/09 07:30:36;;;;;;;5.47;3.50;;;;;;;;;;10424434;28;20330;-78
2022/07/09 07:35:36;;;;;;;3.55;3.08;;;;;;;;;;10393118;28;20144;-79
2022/07/09 07:40:36;;;;;;;10.63;9.23;;;;;;;;;;10397350;28;20124;-75
2022/07/09 07:45:37;;;;;;;3.70;3.20;;;;;;;;;;10395499;28;20037;-75
2022/07/09 07:50:38;;;;;;;5.25;2.80;;;;;;;;;;10400724;28;20264;-76
2022/07/09 07:55:39;;;;;;;4.03;3.00;;;;;;;;;;10403367;28;20060;-73
2022/07/09 08:00:39;;;;;;;5.57;3.03;;;;;;;;;;10385637;28;20125;-76
2022/07/09 08:05:39;;;;;;;4.40;2.93;;;;;;;;;;10387922;28;20136;-75
2022/07/09 08:10:40;;;;;;;4.63;2.80;;;;;;;;;;10393587;28;20291;-76
2022/07/09 08:15:41;;;;;;;4.70;2.73;;;;;;;;;;10382141;28;20288;-78
2022/07/09 08:20:41;;;;;;;3.67;3.05;;;;;;;;;;10387668;28;20719;-76
2022/07/09 08:25:43;;;;;;;3.83;3.00;;;;;;;;;;10388207;28;20046;-80
2022/07/09 08:30:43;;;;;;;4.83;2.73;;;;;;;;;;10397912;28;20037;-79
2022/07/09 08:35:46;;;;;;;4.90;2.80;;;;;;;;;;10399302;28;20147;-77
2022/07/09 08:40:47;;;;;;;5.95;4.70;;;;;;;;;;10404278;28;20284;-75
2022/07/09 08:45:48;;;;;;;4.30;2.60;;;;;;;;;;10409763;28;20044;-79
2022/07/09 08:50:51;;;;;;;2.72;2.03;;;;;;;;;;10410651;28;20096;-78
2022/07/09 08:55:51;;;;;;;4.38;3.03;;;;;;;;;;10385563;28;20060;-74
2022/07/09 09:00:58;;;;;;;2.97;2.30;;;;;;;;;;10391157;28;20107;-75
2022/07/09 09:06:08;;;;;;;2.20;2.00;;;;;;;;;;10381377;28;20083;-75
2022/07/09 09:11:31;;;;;;;5.63;2.40;;;;;;;;;;10386861;28;20041;-75
2022/07/09 09:16:31;;;;;;;3.77;2.20;;;;;;;;;;10391898;28;20054;-76
2022/07/09 09:21:32;;;;;;;2.50;2.00;;;;;;;;;;10376311;28;20041;-77
2022/07/09 09:26:35;;;;;;;5.47;2.50;;;;;;;;;;10398425;28;20294;-77
2022/07/09 09:31:36;;;;;;;4.05;3.10;;;;;;;;;;10411742;28;20101;-81
2022/07/09 09:36:41;;;;;;;3.13;2.75;;;;;;;;;;10398174;28;20041;-79
2022/07/09 09:42:08;;;;;;;2.67;2.05;;;;;;;;;;10426812;28;20033;-82
2022/07/09 09:47:14;;;;;;;4.22;2.10;;;;;;;;;;10417121;28;20042;-81
2022/07/09 09:52:40;;;;;;;1.90;1.80;;;;;;;;;;10410804;28;20075;-83
2022/07/09 09:58:06;;;;;;;3.15;2.03;;;;;;;;;;10399533;28;20034;-82
2022/07/09 10:03:15;;;;;;;2.90;1.77;;;;;;;;;;10364516;28;20026;-80
2022/07/09 10:08:33;;;;;;;;;;;;;;;;;;;;;
2022/07/09 10:19:39;;;;;;;;;;;;;;;;;;;;;
2022/07/09 10:25:01;;;;;;;6.38;2.50;;;;;;;;;;10377439;28;20548;-80
2022/07/09 10:30:05;;;;;;;5.85;2.97;;;;;;;;;;10371840;28;20047;-75
2022/07/09 10:35:06;;;;;;;3.40;3.10;;;;;;;;;;10372266;28;20445;-77
2022/07/09 10:40:14;;;;;;;4.32;2.22;;;;;;;;;;10387144;28;20040;-75
2022/07/09 10:45:25;;;;;;;3.65;2.60;;;;;;;;;;10374253;28;20698;-77
2022/07/09 10:50:27;;;;;;;5.63;2.78;;;;;;;;;;10381868;28;20041;-80
2022/07/09 10:55:28;;;;;;;3.80;2.40;;;;;;;;;;10373183;28;20486;-79
2022/07/09 11:00:30;;;;;;;3.15;2.53;;;;;;;;;;10383787;28;20052;-79
2022/07/09 11:05:34;;;;;;;3.83;2.73;;;;;;;;;;10377235;28;20129;-79
2022/07/09 11:10:54;;;;;;;3.45;2.20;;;;;;;;;;10400056;28;20110;-81
2022/07/09 11:15:59;;;;;;;2.15;1.90;;;;;;;;;;10397858;28;20149;-79
2022/07/09 11:21:00;;;;;;;2.25;2.00;;;;;;;;;;10374649;28;20096;-79
2022/07/09 11:26:00;;;;;;;2.97;2.17;;;;;;;;;;10401515;28;20072;-79
2022/07/09 11:31:27;;;;;;;4.85;2.42;;;;;;;;;;10392478;28;20034;-78
2022/07/09 11:36:35;;;;;;;4.85;2.50;;;;;;;;;;10386825;28;20053;-78
2022/07/09 11:41:42;;;;;;;3.33;2.15;;;;;;;;;;10371883;28;20041;-77
2022/07/09 11:46:43;;;;;;;3.10;2.80;;;;;;;;;;10382334;28;20049;-77
2022/07/09 11:51:43;;;;;;;2.40;2.20;;;;;;;;;;10367306;28;20045;-77
2022/07/09 11:56:47;;;;;;;3.42;2.97;;;;;;;;;;10382229;28;20049;-76
2022/07/09 12:01:48;;;;;;;2.73;2.37;;;;;;;;;;10361094;28;20021;-76
2022/07/09 12:06:52;;;;;;;2.90;2.38;;;;;;;;;;10361260;28;20818;-77
2022/07/09 12:11:52;;;;;;;3.90;2.17;;;;;;;;;;10376949;28;20064;-76
2022/07/09 12:16:52;;;;;;;3.50;2.27;;;;;;;;;;10367561;28;20136;-76
2022/07/09 12:21:56;;;;;;;2.33;2.10;;;;;;;;;;10407946;28;20073;-74
2022/07/09 12:26:59;;;;;;;4.93;4.00;;;;;;;;;;10397631;28;20049;-81
2022/07/09 12:32:03;;;;;;;4.47;2.30;;;;;;;;;;10352648;28;20074;-79
2022/07/09 12:37:09;;;;;;;2.95;2.50;;;;;;;;;;10342801;28;20054;-83
2022/07/09 12:42:10;;;;;;;2.73;2.50;;;;;;;;;;10394348;28;20046;-76
2022/07/09 12:47:10;;;;;;;2.97;2.50;;;;;;;;;;10396897;28;20041;-75
2022/07/09 12:52:11;;;;;;;11.13;9.98;;;;;;;;;;10393386;28;20053;-76
2022/07/09 12:57:11;;;;;;;3.37;2.50;;;;;;;;;;10396717;28;20038;-76
2022/07/09 13:02:12;;;;;;;5.53;2.67;;;;;;;;;;10382029;28;20268;-78
2022/07/09 13:07:13;;;;;;;3.22;2.67;;;;;;;;;;10386678;28;20052;-76
2022/07/09 13:12:14;;;;;;;4.30;3.05;;;;;;;;;;10373641;28;20057;-83
2022/07/09 13:17:14;;;;;;;3.00;2.70;;;;;;;;;;10381257;28;20128;-82
2022/07/09 13:22:15;;;;;;;4.60;3.57;;;;;;;;;;10355980;28;20061;-80
2022/07/09 13:27:18;;;;;;;2.63;2.43;;;;;;;;;;10382344;28;20030;-78
2022/07/09 13:32:18;;;;;;;4.88;3.20;;;;;;;;;;10385040;28;20050;-81
2022/07/09 13:37:19;;;;;;;4.00;3.28;;;;;;;;;;10384214;28;20140;-80
2022/07/09 13:42:29;;;;;;;4.07;3.78;;;;;;;;;;10390382;28;20552;-79
2022/07/09 13:47:32;;;;;;;3.70;3.30;;;;;;;;;;10405481;28;20068;-80
2022/07/09 13:52:33;;;;;;;3.67;3.28;;;;;;;;;;10390335;28;20535;-77
2022/07/09 13:57:33;;;;;;;3.20;2.90;;;;;;;;;;10386104;28;20091;-79
2022/07/09 14:02:35;;;;;;;3.33;3.03;;;;;;;;;;10370529;28;20033;-79
2022/07/09 14:07:36;;;;;;;3.85;3.15;;;;;;;;;;10358517;28;20280;-78
2022/07/09 14:12:36;;;;;;;4.60;3.13;;;;;;;;;;10381581;28;20061;-78
2022/07/09 14:17:37;;;;;;;3.67;3.38;;;;;;;;;;10394323;28;20045;-78
2022/07/09 14:22:38;;;;;;;4.05;3.70;;;;;;;;;;10363492;28;20468;-78
2022/07/09 14:27:39;;;;;;;6.17;4.80;;;;;;;;;;10354614;28;20057;-80
2022/07/09 14:32:39;;;;;;;6.47;5.33;;;;;;;;;;10388143;28;20269;-78
2022/07/09 14:37:39;;;;;;;8.90;7.27;;;;;;;;;;10406343;28;20070;-79
2022/07/09 14:42:40;;;;;;;6.30;5.20;;;;;;;;;;10425259;28;20276;-82
2022/07/09 14:47:45;;;;;;;3.60;3.30;;;;;;;;;;10398823;28;20065;-83
2022/07/09 14:52:51;;;;;;;3.42;3.13;;;;;;;;;;10386176;28;20045;-81
2022/07/09 14:58:00;;;;;;;4.25;3.45;;;;;;;;;;10356626;28;20050;-82
2022/07/09 15:03:32;;;;;;;5.07;4.38;;;;;;;;;;10392082;28;20052;-83
2022/07/09 15:08:35;;;;;;;3.65;3.00;;;;;;;;;;10365981;28;20038;-80
2022/07/09 15:13:37;;;;;;;4.00;3.60;;;;;;;;;;10394020;28;20472;-80
2022/07/09 15:18:42;;;;;;;3.08;2.80;;;;;;;;;;10384120;28;20045;-82
2022/07/09 15:23:56;;;;;;;3.50;3.15;;;;;;;;;;10371159;28;20663;-84
2022/07/09 15:28:57;;;;;;;5.50;5.00;;;;;;;;;;10393855;28;20037;-76
2022/07/09 15:34:07;;;;;;;4.10;3.30;;;;;;;;;;10393662;28;20034;-80
2022/07/09 15:39:09;;;;;;;5.25;4.55;;;;;;;;;;10394146;28;20861;-74
2022/07/09 15:44:13;;;;;;;9.75;7.70;;;;;;;;;;10366750;28;20053;-75
2022/07/09 15:49:13;;;;;;;15.55;13.73;;;;;;;;;;10398816;28;20041;-77
2022/07/09 15:54:14;;;;;;;5.43;3.60;;;;;;;;;;10368744;28;20481;-78
2022/07/09 15:59:15;;;;;;;6.20;5.50;;;;;;;;;;10373195;28;20049;-76
2022/07/09 16:04:15;;;;;;;4.13;3.30;;;;;;;;;;10385646;28;20120;-72
2022/07/09 16:09:16;;;;;;;24.43;19.27;;;;;;;;;;10389151;28;20085;-73
2022/07/09 16:14:16;;;;;;;6.17;4.60;;;;;;;;;;10408819;28;20033;-77
2022/07/09 16:19:16;;;;;;;3.55;3.03;;;;;;;;;;10383200;28;20073;-74
2022/07/09 16:24:18;;;;;;;3.93;3.50;;;;;;;;;;10411715;28;20054;-74
2022/07/09 16:29:18;;;;;;;3.95;3.50;;;;;;;;;;10394650;28;20562;-74
2022/07/09 16:34:19;;;;;;;6.72;3.47;;;;;;;;;;10404221;28;20145;-77
2022/07/09 16:39:19;;;;;;;3.07;2.87;;;;;;;;;;10391547;28;20053;-77
2022/07/09 16:44:20;;;;;;;3.83;3.50;;;;;;;;;;10372388;28;20045;-74
2022/07/09 16:49:20;;;;;;;6.30;5.70;;;;;;;;;;10373065;28;20336;-74
2022/07/09 16:54:21;;;;;;;19.08;16.65;;;;;;;;;;10407205;28;20042;-73
2022/07/09 16:59:22;;;;;;;9.40;8.33;;;;;;;;;;10391720;28;20468;-73
2022/07/09 17:04:23;;;;;;;10.07;8.90;;;;;;;;;;10377846;28;20056;-74
2022/07/09 17:09:23;;;;;;;36.33;29.85;;;;;;;;;;10369371;28;20051;-73
2022/07/09 17:14:24;;;;;;;5.55;5.05;;;;;;;;;;10380895;28;20118;-75
2022/07/09 17:19:24;;;;;;;18.98;15.85;;;;;;;;;;10383178;28;20050;-74
2022/07/09 17:24:25;;;;;;;5.30;4.20;;;;;;;;;;10382503;28;20041;-73
2022/07/09 17:29:25;;;;;;;5.05;4.65;;;;;;;;;;10381721;28;20046;-76
2022/07/09 17:34:25;;;;;;;56.20;46.77;;;;;;;;;;10346550;28;20380;-74
2022/07/09 17:39:26;;;;;;;4.17;3.70;;;;;;;;;;10384262;28;20284;-76
2022/07/09 17:44:30;;;;;;;3.67;3.38;;;;;;;;;;10378049;28;20284;-74
2022/07/09 17:49:31;;;;;;;4.70;4.22;;;;;;;;;;10354304;28;20157;-74
2022/07/09 17:54:31;;;;;;;11.52;10.38;;;;;;;;;;10369657;28;20583;-74
2022/07/09 17:59:34;;;;;;;22.67;14.43;;;;;;;;;;10367068;28;20072;-72
2022/07/09 18:04:35;;;;;;;5.50;5.00;;;;;;;;;;10366607;28;20053;-76
2022/07/09 18:09:35;;;;;;;4.53;4.13;;;;;;;;;;10382586;28;20049;-80
2022/07/09 18:14:35;;;;;;;7.88;6.57;;;;;;;;;;10412122;28;20475;-77
2022/07/09 18:19:36;;;;;;;4.83;4.33;;;;;;;;;;10400901;28;20067;-74
2022/07/09 18:24:37;;;;;;;4.93;4.07;;;;;;;;;;10385894;28;20041;-81
2022/07/09 18:29:37;;;;;;;4.22;3.92;;;;;;;;;;10365666;28;20045;-77
2022/07/09 18:34:38;;;;;;;5.25;4.60;;;;;;;;;;10385429;28;20151;-78
2022/07/09 18:39:39;;;;;;;4.77;4.30;;;;;;;;;;10388354;28;20382;-76
2022/07/09 18:44:42;;;;;;;5.03;4.43;;;;;;;;;;10386938;28;20280;-83
2022/07/09 18:49:55;;;;;;;;;;;;;;;;;;;;;
2022/07/09 18:55:47;;;;;;;4.60;4.13;;;;;;;;;;10339788;28;20060;-81
2022/07/09 19:00:53;;;;;;;5.53;3.88;;;;;;;;;;10348632;28;20036;-80
2022/07/09 19:16:56;;;;;;;3.40;3.10;;;;;;;;;;10332472;28;20123;-81
2022/07/09 19:21:59;;;;;;;4.28;3.13;;;;;;;;;;10312404;28;20064;-82
2022/07/09 19:27:05;;;;;;;3.03;2.78;;;;;;;;;;10330538;28;20126;-84
2022/07/09 19:37:26;;;;;;;3.90;3.08;;;;;;;;;;10346173;28;20048;-80
2022/07/09 19:43:02;;;;;;;;;;;;;;;;;;;;;
2022/07/09 19:48:27;;;;;;;5.10;4.60;;;;;;;;;;10326671;28;20113;-81
2022/07/09 19:53:30;;;;;;;;;;;;;;;;;;10357561;28;20030;-80
2022/07/09 19:58:38;;;;;;;6.03;4.72;;;;;;;;;;10383913;28;19928;-82
2022/07/09 20:04:04;;;;;;;5.53;4.82;;;;;;;;;;10559192;23;20076;-83
2022/07/09 20:09:16;;;;;;;5.25;4.60;;;;;;;;;;10403108;28;20038;-80
2022/07/09 20:14:23;;;;;;;5.00;4.15;;;;;;;;;;10410844;28;20041;-79
2022/07/09 20:19:31;;;;;;;4.10;3.70;;;;;;;;;;10412023;28;20062;-81
2022/07/09 20:24:35;;;;;;;4.13;3.75;;;;;;;;;;10414103;28;20014;-84
2022/07/09 20:29:48;;;;;;;4.28;3.88;;;;;;;;;;10428738;28;20017;-78
2022/07/09 20:34:48;;;;;;;4.93;3.60;;;;;;;;;;10401422;28;20034;-81
2022/07/09 20:39:49;;;;;;;6.03;4.05;;;;;;;;;;10429000;28;20238;-81
2022/07/09 20:44:52;;;;;;;4.78;3.88;;;;;;;;;;10421183;28;20053;-82
2022/07/09 20:50:04;;;;;;;4.80;4.10;;;;;;;;;;10407531;28;20136;-81
2022/07/09 20:55:45;;;;;;;4.57;4.18;;;;;;;;;;10394297;28;20046;-83
2022/07/09 21:01:26;;;;;;;6.32;4.60;;;;;;;;;;10371206;28;20109;-81
2022/07/09 21:06:32;;;;;;;4.95;4.07;;;;;;;;;;10407047;28;20109;-84
2022/07/09 21:11:35;;;;;;;5.22;4.50;;;;;;;;;;10406992;28;20425;-78
2022/07/09 21:21:55;;;;;;;5.13;4.53;;;;;;;;;;10412204;28;20053;-80
2022/07/09 21:26:59;;;;;;;4.93;4.50;;;;;;;;;;10406383;28;20069;-82
2022/07/09 21:32:19;;;;;;;5.03;4.50;;;;;;;;;;10412285;28;20311;-83
2022/07/09 21:37:29;;;;;;;4.68;4.28;;;;;;;;;;10436025;28;20140;-85
2022/07/09 21:42:34;;;;;;;5.97;4.00;;;;;;;;;;10388745;28;20049;-80
2022/07/09 21:47:37;;;;;;;5.25;4.32;;;;;;;;;;10423036;28;20046;-81
2022/07/09 21:52:37;;;;;;;5.22;4.72;;;;;;;;;;10422688;28;20061;-84
2022/07/09 21:57:48;;;;;;;5.72;5.05;;;;;;;;;;10427258;28;20060;-83
2022/07/09 22:02:49;;;;;;;5.22;4.72;;;;;;;;;;10390624;28;20492;-83
2022/07/09 22:07:55;;;;;;;6.70;6.03;;;;;;;;;;10414826;28;20198;-82
2022/07/09 22:13:05;;;;;;;5.40;4.85;;;;;;;;;;10414444;28;20085;-83
2022/07/09 22:18:49;;;;;;;;;;;;;;;;;;;;;
2022/07/09 22:24:18;;;;;;;5.45;4.95;;;;;;;;;;10383679;28;20049;-82
2022/07/09 22:35:28;;;;;;;5.82;5.28;;;;;;;;;;10431297;28;20041;-80
2022/07/09 22:40:35;;;;;;;6.05;5.45;;;;;;;;;;10418666;28;20044;-82
2022/07/09 22:45:52;;;;;;;5.25;4.72;;;;;;;;;;10430899;28;20052;-84
2022/07/09 22:50:53;;;;;;;5.20;4.70;;;;;;;;;;10371996;28;20044;-83
2022/07/09 22:55:54;;;;;;;5.18;4.68;;;;;;;;;;10414909;28;20076;-81
2022/07/09 23:00:54;;;;;;;4.90;4.40;;;;;;;;;;10401173;28;20057;-85
2022/07/09 23:05:55;;;;;;;5.63;4.97;;;;;;;;;;10420320;28;20073;-81
2022/07/09 23:10:55;;;;;;;4.82;4.43;;;;;;;;;;10429246;28;20059;-86
2022/07/09 23:16:00;;;;;;;5.05;4.53;;;;;;;;;;10438775;28;20101;-82
2022/07/09 23:21:01;;;;;;;5.53;4.82;;;;;;;;;;10417887;28;20385;-83
2022/07/09 23:26:02;;;;;;;5.07;4.57;;;;;;;;;;10424770;28;20068;-83
2022/07/09 23:31:04;;;;;;;5.70;4.75;;;;;;;;;;10406696;28;20037;-82
2022/07/09 23:36:07;;;;;;;5.05;4.55;;;;;;;;;;10414032;28;20192;-82
2022/07/09 23:41:09;;;;;;;5.20;4.80;;;;;;;;;;10416464;28;20051;-83
2022/07/09 23:46:11;;;;;;;4.85;4.45;;;;;;;;;;10423956;28;20117;-84
2022/07/09 23:51:14;;;;;;;4.80;4.40;;;;;;;;;;10423039;28;20350;-84
2022/07/09 23:56:35;;;;;;;5.03;4.60;;;;;;;;;;10428176;28;20045;-83
